Barksdale Air Force Base

KBAD · 路易斯安那州, 美国

罗盘
风向 的 风向 350° Barksdale Air Force Base 15/33
风: 8 kt, 3 beaufort

8 kt

3 kt
改变
0 1.000 2.000 3.000 4.000 5.000
没有云
METAR KBAD 071855Z AUTO 35008KT 8SM CLR 30/11 A3017 RMK AO2 SLP219 T03030108

METAR Barksdale Air Force Base - KBAD/BAD

Barksdale Air Force Base是Bossier City,美国中的中型机场。 该机场有一条跑道: 15/33. 该领域的国际民航组织标志是KBAD 它的国际航空运输协会代码是BAD.

这份报告是针对2022年10月7日 13:55, 当地时间在Barksdale Air Force Base进行的。

机场观察

风向为350°,速度为8 kt。

可见度为8 mi。

有没有云。 没有观察到天花板。

温度和风寒是30 °C。 露点为11 °C,相对湿度为31%。 海平面上的气压为30,17 inHg (QNH)。

白天

今天,太阳从07:12升起,在18:51降落。 这适用于Barksdale Air Force Base,世界夏令时可能有所不同。 当地时间与世界标准时间之间的时差为-5 小时。 夏令时目前正在进行中。

公司介绍

我们没有关于这个机场的公司信息。

体会

到Vliegles.nl去找飞行课程,跳伞和其他飞行体验。 浏览页面,了解Barksdale Air Force Base附近所有可用的活动。 你也可以使用搜索功能来寻找你所在地附近的特定飞行课程、跳伞或其他飞行体验。

跑道

Id 标题 侧风 逆风 侧风 %
15/33 151°-331° 3 kt 8 kt 33 %

逆风成分最大的方向会被突出显示,并用于横风计算。 这并不一定意味着这个方向在使用。

乌云

- CLR 没有云

温度 & 天气

温度 30,3 °C
露点 10,8 °C
相对湿度 31%
Kp-index 1 (0-9)

评论

AO2自动气象站,可确定降水类型
SLP219海平面压力为30,18 inHg (30,18 inHg)
T03030108温度为30,3 °C (86,5 °F),露点为10,8 °C (51,4 °F)

白天

日出
07:12
中午
13:02
日落
18:51 (4h 28m)

小工具

你想在你的网站上有一个关于Barksdale Air Force Base的当前航空天气(METAR)的小部件吗?

</> 显示HTML代码

我们和第三方通过cookies跟踪您在我们网站上的上网行为。如果您继续,我们认为您同意我们的cookie政策。 了解更多